sensor_id;sensor_type;location;lat;lon;timestamp;P1;durP1;ratioP1;P2;durP2;ratioP2
39822;SDS011;25499;53.958;10.970;2023-03-31T06:11:15;22.90;;;10.05;;
39822;SDS011;25499;53.958;10.970;2023-03-31T06:13:43;22.25;;;8.60;;
39822;SDS011;25499;53.958;10.970;2023-03-31T06:16:10;22.63;;;10.15;;
39822;SDS011;25499;53.958;10.970;2023-03-31T06:18:37;22.90;;;9.50;;
39822;SDS011;25499;53.958;10.970;2023-03-31T06:21:02;21.02;;;9.95;;
39822;SDS011;25499;53.958;10.970;2023-03-31T06:23:28;21.85;;;9.15;;
39822;SDS011;25499;53.958;10.970;2023-03-31T06:25:58;22.77;;;9.23;;
39822;SDS011;25499;53.958;10.970;2023-03-31T06:28:26;20.52;;;9.40;;
39822;SDS011;25499;53.958;10.970;2023-03-31T06:30:58;20.33;;;8.88;;
39822;SDS011;25499;53.958;10.970;2023-03-31T06:33:28;22.75;;;9.55;;
39822;SDS011;25499;53.958;10.970;2023-03-31T06:35:54;19.27;;;8.85;;
39822;SDS011;25499;53.958;10.970;2023-03-31T06:38:21;19.08;;;9.13;;
39822;SDS011;25499;53.958;10.970;2023-03-31T06:40:47;23.15;;;9.57;;
39822;SDS011;25499;53.958;10.970;2023-03-31T06:43:12;26.05;;;9.75;;
39822;SDS011;25499;53.958;10.970;2023-03-31T06:45:37;20.25;;;8.95;;
39822;SDS011;25499;53.958;10.970;2023-03-31T06:48:03;24.25;;;9.73;;
39822;SDS011;25499;53.958;10.970;2023-03-31T06:50:29;22.00;;;9.35;;
39822;SDS011;25499;53.958;10.970;2023-03-31T06:52:54;21.95;;;9.32;;
39822;SDS011;25499;53.958;10.970;2023-03-31T06:55:20;22.88;;;9.50;;
39822;SDS011;25499;53.958;10.970;2023-03-31T06:57:45;21.58;;;9.68;;
39822;SDS011;25499;53.958;10.970;2023-03-31T07:00:11;21.83;;;10.45;;
39822;SDS011;25499;53.958;10.970;2023-03-31T07:02:37;26.15;;;9.52;;
39822;SDS011;25499;53.958;10.970;2023-03-31T07:05:03;19.52;;;10.13;;
39822;SDS011;25499;53.958;10.970;2023-03-31T07:07:32;22.65;;;9.82;;
39822;SDS011;25499;53.958;10.970;2023-03-31T07:09:58;21.90;;;10.32;;
39822;SDS011;25499;53.958;10.970;2023-03-31T07:12:23;17.33;;;10.23;;
39822;SDS011;25499;53.958;10.970;2023-03-31T07:14:48;20.85;;;9.77;;
39822;SDS011;25499;53.958;10.970;2023-03-31T07:17:14;24.40;;;10.30;;
39822;SDS011;25499;53.958;10.970;2023-03-31T07:19:41;23.55;;;10.10;;
39822;SDS011;25499;53.958;10.970;2023-03-31T07:22:07;20.15;;;10.75;;
39822;SDS011;25499;53.958;10.970;2023-03-31T07:24:33;22.83;;;10.25;;
39822;SDS011;25499;53.958;10.970;2023-03-31T07:26:58;23.85;;;9.93;;
39822;SDS011;25499;53.958;10.970;2023-03-31T07:29:24;19.35;;;9.85;;
39822;SDS011;25499;53.958;10.970;2023-03-31T07:31:50;27.23;;;11.30;;
39822;SDS011;25499;53.958;10.970;2023-03-31T07:34:16;18.48;;;9.52;;
39822;SDS011;25499;53.958;10.970;2023-03-31T07:36:41;24.88;;;10.30;;
39822;SDS011;25499;53.958;10.970;2023-03-31T07:39:07;20.80;;;10.05;;
39822;SDS011;25499;53.958;10.970;2023-03-31T07:41:32;27.27;;;10.50;;
39822;SDS011;25499;53.958;10.970;2023-03-31T07:43:58;21.23;;;10.25;;
39822;SDS011;25499;53.958;10.970;2023-03-31T07:46:27;25.15;;;9.35;;
39822;SDS011;25499;53.958;10.970;2023-03-31T07:48:54;21.63;;;9.68;;
39822;SDS011;25499;53.958;10.970;2023-03-31T07:51:21;18.50;;;9.70;;
39822;SDS011;25499;53.958;10.970;2023-03-31T07:53:48;23.42;;;10.50;;
39822;SDS011;25499;53.958;10.970;2023-03-31T07:56:17;21.33;;;10.15;;
39822;SDS011;25499;53.958;10.970;2023-03-31T07:58:44;24.88;;;10.63;;
39822;SDS011;25499;53.958;10.970;2023-03-31T08:01:12;26.55;;;10.52;;
39822;SDS011;25499;53.958;10.970;2023-03-31T08:06:07;24.83;;;10.02;;
39822;SDS011;25499;53.958;10.970;2023-03-31T08:08:32;22.65;;;11.50;;
39822;SDS011;25499;53.958;10.970;2023-03-31T08:10:58;26.98;;;11.13;;
39822;SDS011;25499;53.958;10.970;2023-03-31T08:13:24;23.05;;;10.80;;
39822;SDS011;25499;53.958;10.970;2023-03-31T08:15:50;22.92;;;10.27;;
39822;SDS011;25499;53.958;10.970;2023-03-31T08:18:15;20.23;;;9.90;;
39822;SDS011;25499;53.958;10.970;2023-03-31T08:20:41;24.77;;;10.68;;
39822;SDS011;25499;53.958;10.970;2023-03-31T08:23:07;20.67;;;10.35;;
39822;SDS011;25499;53.958;10.970;2023-03-31T08:25:35;20.77;;;9.90;;
39822;SDS011;25499;53.958;10.970;2023-03-31T08:28:01;21.13;;;9.98;;
39822;SDS011;25499;53.958;10.970;2023-03-31T08:30:27;19.92;;;9.73;;
39822;SDS011;25499;53.958;10.970;2023-03-31T08:32:52;22.73;;;9.70;;
39822;SDS011;25499;53.958;10.970;2023-03-31T08:35:17;19.95;;;9.82;;
39822;SDS011;25499;53.958;10.970;2023-03-31T08:37:44;18.60;;;9.20;;
39822;SDS011;25499;53.958;10.970;2023-03-31T08:40:13;22.30;;;9.38;;
39822;SDS011;25499;53.958;10.970;2023-03-31T08:42:44;18.92;;;9.10;;
39822;SDS011;25499;53.958;10.970;2023-03-31T08:45:18;17.10;;;8.50;;
39822;SDS011;25499;53.958;10.970;2023-03-31T08:47:52;19.45;;;9.32;;
39822;SDS011;25499;53.958;10.970;2023-03-31T08:50:23;23.42;;;8.45;;
39822;SDS011;25499;53.958;10.970;2023-03-31T08:53:04;18.40;;;8.38;;
39822;SDS011;25499;53.958;10.970;2023-03-31T08:55:43;19.02;;;7.85;;
39822;SDS011;25499;53.958;10.970;2023-03-31T08:58:31;19.35;;;7.68;;
39822;SDS011;25499;53.958;10.970;2023-03-31T09:06:42;16.85;;;7.32;;
39822;SDS011;25499;53.958;10.970;2023-03-31T09:12:50;19.40;;;8.13;;
39822;SDS011;25499;53.958;10.970;2023-03-31T09:15:23;17.73;;;7.47;;
39822;SDS011;25499;53.958;10.970;2023-03-31T09:17:52;20.77;;;7.88;;
39822;SDS011;25499;53.958;10.970;2023-03-31T09:20:23;16.95;;;7.47;;
39822;SDS011;25499;53.958;10.970;2023-03-31T09:22:55;17.45;;;8.05;;
39822;SDS011;25499;53.958;10.970;2023-03-31T09:25:28;16.63;;;7.75;;
39822;SDS011;25499;53.958;10.970;2023-03-31T09:27:57;21.02;;;8.25;;
39822;SDS011;25499;53.958;10.970;2023-03-31T09:35:35;20.13;;;8.68;;
39822;SDS011;25499;53.958;10.970;2023-03-31T09:38:00;19.95;;;8.38;;
39822;SDS011;25499;53.958;10.970;2023-03-31T09:40:26;18.92;;;8.82;;
39822;SDS011;25499;53.958;10.970;2023-03-31T09:42:55;16.05;;;8.75;;
39822;SDS011;25499;53.958;10.970;2023-03-31T09:45:23;18.05;;;8.45;;
39822;SDS011;25499;53.958;10.970;2023-03-31T09:47:50;19.98;;;8.70;;
39822;SDS011;25499;53.958;10.970;2023-03-31T09:50:21;14.65;;;8.75;;
39822;SDS011;25499;53.958;10.970;2023-03-31T09:52:51;19.48;;;9.20;;
39822;SDS011;25499;53.958;10.970;2023-03-31T09:58:13;17.65;;;7.60;;
39822;SDS011;25499;53.958;10.970;2023-03-31T10:00:42;16.88;;;7.28;;
39822;SDS011;25499;53.958;10.970;2023-03-31T10:03:22;17.45;;;6.65;;
39822;SDS011;25499;53.958;10.970;2023-03-31T10:05:49;16.15;;;6.63;;
39822;SDS011;25499;53.958;10.970;2023-03-31T10:13:29;18.77;;;6.43;;
39822;SDS011;25499;53.958;10.970;2023-03-31T10:16:09;22.23;;;6.95;;
39822;SDS011;25499;53.958;10.970;2023-03-31T10:18:38;14.82;;;6.55;;
39822;SDS011;25499;53.958;10.970;2023-03-31T10:21:06;16.67;;;6.20;;
39822;SDS011;25499;53.958;10.970;2023-03-31T10:23:44;10.88;;;5.30;;
39822;SDS011;25499;53.958;10.970;2023-03-31T10:26:13;17.00;;;5.85;;
39822;SDS011;25499;53.958;10.970;2023-03-31T10:28:47;12.98;;;4.35;;
39822;SDS011;25499;53.958;10.970;2023-03-31T10:31:16;12.10;;;3.87;;
39822;SDS011;25499;53.958;10.970;2023-03-31T10:33:45;8.55;;;3.20;;
39822;SDS011;25499;53.958;10.970;2023-03-31T10:36:15;8.27;;;2.55;;
39822;SDS011;25499;53.958;10.970;2023-03-31T10:38:48;6.68;;;2.15;;
39822;SDS011;25499;53.958;10.970;2023-03-31T10:41:26;5.35;;;2.40;;
39822;SDS011;25499;53.958;10.970;2023-03-31T10:43:55;8.30;;;2.55;;
39822;SDS011;25499;53.958;10.970;2023-03-31T10:51:54;4.78;;;1.30;;
39822;SDS011;25499;53.958;10.970;2023-03-31T10:54:23;4.70;;;1.30;;
39822;SDS011;25499;53.958;10.970;2023-03-31T10:56:56;4.90;;;1.40;;
39822;SDS011;25499;53.958;10.970;2023-03-31T11:11:29;5.43;;;2.20;;
39822;SDS011;25499;53.958;10.970;2023-03-31T11:16:59;5.63;;;2.40;;
39822;SDS011;25499;53.958;10.970;2023-03-31T11:28:40;4.72;;;2.55;;
39822;SDS011;25499;53.958;10.970;2023-03-31T11:42:09;5.00;;;2.50;;
39822;SDS011;25499;53.958;10.970;2023-03-31T11:44:43;4.78;;;2.25;;
39822;SDS011;25499;53.958;10.970;2023-03-31T11:47:27;3.72;;;2.40;;
39822;SDS011;25499;53.958;10.970;2023-03-31T11:50:00;5.90;;;2.33;;
39822;SDS011;25499;53.958;10.970;2023-03-31T11:52:34;3.08;;;1.70;;
39822;SDS011;25499;53.958;10.970;2023-03-31T12:03:53;5.90;;;2.30;;
39822;SDS011;25499;53.958;10.970;2023-03-31T12:06:21;2.58;;;1.65;;
39822;SDS011;25499;53.958;10.970;2023-03-31T12:19:05;4.07;;;1.40;;
39822;SDS011;25499;53.958;10.970;2023-03-31T12:21:31;2.42;;;1.48;;
39822;SDS011;25499;53.958;10.970;2023-03-31T12:24:00;2.75;;;1.30;;
39822;SDS011;25499;53.958;10.970;2023-03-31T12:31:49;3.17;;;1.00;;
39822;SDS011;25499;53.958;10.970;2023-03-31T12:34:19;2.50;;;1.10;;
39822;SDS011;25499;53.958;10.970;2023-03-31T12:50:34;2.70;;;0.93;;
39822;SDS011;25499;53.958;10.970;2023-03-31T12:55:56;2.17;;;1.02;;
39822;SDS011;25499;53.958;10.970;2023-03-31T13:01:06;3.72;;;0.93;;
39822;SDS011;25499;53.958;10.970;2023-03-31T13:14:10;1.83;;;0.70;;
39822;SDS011;25499;53.958;10.970;2023-03-31T13:16:52;2.42;;;0.85;;
39822;SDS011;25499;53.958;10.970;2023-03-31T13:19:35;6.40;;;1.00;;
39822;SDS011;25499;53.958;10.970;2023-03-31T13:22:02;2.63;;;1.25;;
39822;SDS011;25499;53.958;10.970;2023-03-31T13:24:29;1.90;;;1.00;;
39822;SDS011;25499;53.958;10.970;2023-03-31T13:29:56;1.52;;;0.80;;
39822;SDS011;25499;53.958;10.970;2023-03-31T13:32:22;4.35;;;1.23;;
39822;SDS011;25499;53.958;10.970;2023-03-31T13:43:07;4.25;;;1.13;;
39822;SDS011;25499;53.958;10.970;2023-03-31T13:51:56;3.05;;;1.00;;
39822;SDS011;25499;53.958;10.970;2023-03-31T13:57:17;5.65;;;1.20;;
39822;SDS011;25499;53.958;10.970;2023-03-31T14:02:35;5.13;;;1.20;;
39822;SDS011;25499;53.958;10.970;2023-03-31T14:15:31;2.85;;;0.90;;
39822;SDS011;25499;53.958;10.970;2023-03-31T14:18:00;3.90;;;1.00;;
39822;SDS011;25499;53.958;10.970;2023-03-31T14:20:29;1.58;;;0.93;;
39822;SDS011;25499;53.958;10.970;2023-03-31T14:25:43;2.95;;;1.02;;
39822;SDS011;25499;53.958;10.970;2023-03-31T14:30:48;3.83;;;0.90;;
39822;SDS011;25499;53.958;10.970;2023-03-31T14:38:35;2.90;;;1.30;;
39822;SDS011;25499;53.958;10.970;2023-03-31T14:41:01;1.65;;;0.88;;
39822;SDS011;25499;53.958;10.970;2023-03-31T14:43:34;3.38;;;0.93;;
39822;SDS011;25499;53.958;10.970;2023-03-31T14:46:05;3.17;;;1.23;;
39822;SDS011;25499;53.958;10.970;2023-03-31T14:48:33;3.25;;;0.90;;
39822;SDS011;25499;53.958;10.970;2023-03-31T14:51:07;3.85;;;1.00;;
39822;SDS011;25499;53.958;10.970;2023-03-31T14:53:34;1.60;;;0.90;;
39822;SDS011;25499;53.958;10.970;2023-03-31T14:56:04;3.00;;;1.10;;
39822;SDS011;25499;53.958;10.970;2023-03-31T14:58:35;1.20;;;0.70;;
39822;SDS011;25499;53.958;10.970;2023-03-31T15:01:04;1.60;;;0.90;;
39822;SDS011;25499;53.958;10.970;2023-03-31T15:03:32;4.35;;;1.27;;
39822;SDS011;25499;53.958;10.970;2023-03-31T15:06:01;1.50;;;0.73;;
39822;SDS011;25499;53.958;10.970;2023-03-31T15:08:30;2.85;;;1.00;;
39822;SDS011;25499;53.958;10.970;2023-03-31T15:11:01;3.88;;;0.75;;
39822;SDS011;25499;53.958;10.970;2023-03-31T15:18:56;1.42;;;0.90;;
39822;SDS011;25499;53.958;10.970;2023-03-31T15:21:25;1.52;;;0.90;;
39822;SDS011;25499;53.958;10.970;2023-03-31T15:23:56;3.28;;;0.80;;
39822;SDS011;25499;53.958;10.970;2023-03-31T15:26:23;2.27;;;1.23;;
39822;SDS011;25499;53.958;10.970;2023-03-31T15:29:00;3.20;;;1.00;;
39822;SDS011;25499;53.958;10.970;2023-03-31T15:31:28;1.92;;;0.80;;
39822;SDS011;25499;53.958;10.970;2023-03-31T15:33:54;1.77;;;0.80;;
39822;SDS011;25499;53.958;10.970;2023-03-31T15:36:20;2.05;;;0.98;;
39822;SDS011;25499;53.958;10.970;2023-03-31T15:38:46;3.05;;;1.17;;
39822;SDS011;25499;53.958;10.970;2023-03-31T15:41:22;4.05;;;1.08;;
39822;SDS011;25499;53.958;10.970;2023-03-31T15:43:48;2.72;;;1.38;;
39822;SDS011;25499;53.958;10.970;2023-03-31T15:49:03;4.72;;;1.45;;
39822;SDS011;25499;53.958;10.970;2023-03-31T15:51:35;2.67;;;1.20;;
39822;SDS011;25499;53.958;10.970;2023-03-31T15:54:02;3.20;;;1.30;;
39822;SDS011;25499;53.958;10.970;2023-03-31T16:01:47;2.47;;;1.10;;
39822;SDS011;25499;53.958;10.970;2023-03-31T16:04:14;4.57;;;1.30;;
39822;SDS011;25499;53.958;10.970;2023-03-31T16:06:44;3.38;;;1.40;;
39822;SDS011;25499;53.958;10.970;2023-03-31T16:09:16;5.70;;;1.58;;
39822;SDS011;25499;53.958;10.970;2023-03-31T16:11:44;2.67;;;1.50;;
39822;SDS011;25499;53.958;10.970;2023-03-31T16:16:53;3.67;;;1.48;;
39822;SDS011;25499;53.958;10.970;2023-03-31T16:19:23;2.25;;;1.25;;
39822;SDS011;25499;53.958;10.970;2023-03-31T16:21:53;3.65;;;1.38;;
39822;SDS011;25499;53.958;10.970;2023-03-31T16:24:27;4.50;;;1.97;;
39822;SDS011;25499;53.958;10.970;2023-03-31T16:27:01;3.08;;;1.60;;
39822;SDS011;25499;53.958;10.970;2023-03-31T16:29:34;4.97;;;1.75;;
39822;SDS011;25499;53.958;10.970;2023-03-31T16:32:17;3.97;;;2.13;;
39822;SDS011;25499;53.958;10.970;2023-03-31T16:34:51;4.57;;;2.17;;
39822;SDS011;25499;53.958;10.970;2023-03-31T16:37:18;5.55;;;2.30;;
39822;SDS011;25499;53.958;10.970;2023-03-31T16:39:44;3.33;;;2.35;;
39822;SDS011;25499;53.958;10.970;2023-03-31T16:42:09;4.40;;;2.00;;
39822;SDS011;25499;53.958;10.970;2023-03-31T16:44:35;5.38;;;2.65;;
39822;SDS011;25499;53.958;10.970;2023-03-31T16:47:00;4.38;;;2.05;;
39822;SDS011;25499;53.958;10.970;2023-03-31T16:49:26;4.57;;;2.17;;
39822;SDS011;25499;53.958;10.970;2023-03-31T16:51:51;6.43;;;2.55;;
39822;SDS011;25499;53.958;10.970;2023-03-31T16:54:16;4.85;;;2.13;;
39822;SDS011;25499;53.958;10.970;2023-03-31T16:56:42;6.47;;;2.00;;
39822;SDS011;25499;53.958;10.970;2023-03-31T16:59:08;5.28;;;2.15;;
39822;SDS011;25499;53.958;10.970;2023-03-31T17:01:33;5.28;;;1.95;;
39822;SDS011;25499;53.958;10.970;2023-03-31T17:03:59;4.80;;;2.00;;
39822;SDS011;25499;53.958;10.970;2023-03-31T17:06:24;4.90;;;2.10;;
39822;SDS011;25499;53.958;10.970;2023-03-31T17:08:50;5.07;;;2.10;;
39822;SDS011;25499;53.958;10.970;2023-03-31T17:11:15;4.10;;;1.83;;
39822;SDS011;25499;53.958;10.970;2023-03-31T17:13:41;3.70;;;2.20;;
39822;SDS011;25499;53.958;10.970;2023-03-31T17:16:09;4.68;;;2.78;;
39822;SDS011;25499;53.958;10.970;2023-03-31T17:18:35;9.77;;;2.85;;
39822;SDS011;25499;53.958;10.970;2023-03-31T17:21:06;6.03;;;2.67;;
39822;SDS011;25499;53.958;10.970;2023-03-31T17:23:33;4.65;;;2.47;;
39822;SDS011;25499;53.958;10.970;2023-03-31T17:25:59;3.45;;;2.47;;
39822;SDS011;25499;53.958;10.970;2023-03-31T17:28:25;5.63;;;2.53;;
39822;SDS011;25499;53.958;10.970;2023-03-31T17:30:51;6.38;;;2.92;;
39822;SDS011;25499;53.958;10.970;2023-03-31T17:33:16;6.00;;;3.50;;
39822;SDS011;25499;53.958;10.970;2023-03-31T17:35:42;5.78;;;3.17;;
39822;SDS011;25499;53.958;10.970;2023-03-31T17:38:08;5.72;;;3.30;;
39822;SDS011;25499;53.958;10.970;2023-03-31T17:45:41;6.53;;;4.05;;
39822;SDS011;25499;53.958;10.970;2023-03-31T17:48:06;7.93;;;3.95;;
39822;SDS011;25499;53.958;10.970;2023-03-31T17:50:34;4.35;;;3.92;;
39822;SDS011;25499;53.958;10.970;2023-03-31T17:53:00;4.70;;;3.85;;
39822;SDS011;25499;53.958;10.970;2023-03-31T17:55:25;6.53;;;3.97;;
39822;SDS011;25499;53.958;10.970;2023-03-31T17:57:52;7.57;;;4.28;;
39822;SDS011;25499;53.958;10.970;2023-03-31T18:00:17;7.88;;;4.63;;
39822;SDS011;25499;53.958;10.970;2023-03-31T18:02:43;8.45;;;4.75;;
39822;SDS011;25499;53.958;10.970;2023-03-31T18:05:09;8.98;;;5.30;;
39822;SDS011;25499;53.958;10.970;2023-03-31T18:07:35;7.22;;;5.82;;
39822;SDS011;25499;53.958;10.970;2023-03-31T18:10:02;8.18;;;5.40;;
39822;SDS011;25499;53.958;10.970;2023-03-31T18:12:34;8.93;;;5.50;;
39822;SDS011;25499;53.958;10.970;2023-03-31T18:15:02;7.07;;;5.50;;
39822;SDS011;25499;53.958;10.970;2023-03-31T18:17:29;8.25;;;5.90;;
39822;SDS011;25499;53.958;10.970;2023-03-31T18:19:55;6.18;;;5.03;;
39822;SDS011;25499;53.958;10.970;2023-03-31T18:22:21;7.20;;;5.53;;
39822;SDS011;25499;53.958;10.970;2023-03-31T18:24:47;8.70;;;5.72;;
39822;SDS011;25499;53.958;10.970;2023-03-31T18:27:13;8.50;;;5.47;;
39822;SDS011;25499;53.958;10.970;2023-03-31T18:29:39;8.07;;;6.18;;
39822;SDS011;25499;53.958;10.970;2023-03-31T18:32:05;6.72;;;6.07;;
39822;SDS011;25499;53.958;10.970;2023-03-31T18:34:31;9.95;;;6.47;;
39822;SDS011;25499;53.958;10.970;2023-03-31T18:36:57;8.95;;;6.55;;
39822;SDS011;25499;53.958;10.970;2023-03-31T18:39:23;10.52;;;6.55;;
39822;SDS011;25499;53.958;10.970;2023-03-31T18:41:48;10.40;;;7.05;;
39822;SDS011;25499;53.958;10.970;2023-03-31T18:44:14;8.32;;;6.55;;
39822;SDS011;25499;53.958;10.970;2023-03-31T18:46:41;8.52;;;6.82;;
39822;SDS011;25499;53.958;10.970;2023-03-31T18:49:11;10.57;;;7.18;;
39822;SDS011;25499;53.958;10.970;2023-03-31T18:51:38;9.98;;;6.53;;
39822;SDS011;25499;53.958;10.970;2023-03-31T18:54:04;8.52;;;6.78;;
39822;SDS011;25499;53.958;10.970;2023-03-31T18:56:30;10.93;;;7.07;;
39822;SDS011;25499;53.958;10.970;2023-03-31T18:58:55;11.00;;;6.85;;
39822;SDS011;25499;53.958;10.970;2023-03-31T19:01:22;11.07;;;6.63;;
39822;SDS011;25499;53.958;10.970;2023-03-31T19:03:48;8.18;;;6.63;;
39822;SDS011;25499;53.958;10.970;2023-03-31T19:06:13;10.65;;;7.22;;
39822;SDS011;25499;53.958;10.970;2023-03-31T19:08:41;13.82;;;9.40;;
39822;SDS011;25499;53.958;10.970;2023-03-31T19:11:13;11.20;;;8.48;;
39822;SDS011;25499;53.958;10.970;2023-03-31T19:13:41;10.57;;;7.18;;
39822;SDS011;25499;53.958;10.970;2023-03-31T19:16:07;8.48;;;6.30;;
39822;SDS011;25499;53.958;10.970;2023-03-31T19:18:34;7.50;;;6.03;;
39822;SDS011;25499;53.958;10.970;2023-03-31T19:21:00;7.47;;;6.05;;
39822;SDS011;25499;53.958;10.970;2023-03-31T19:23:26;6.70;;;5.60;;
39822;SDS011;25499;53.958;10.970;2023-03-31T19:25:53;9.13;;;5.80;;
39822;SDS011;25499;53.958;10.970;2023-03-31T19:28:21;9.88;;;5.43;;
39822;SDS011;25499;53.958;10.970;2023-03-31T19:30:47;7.50;;;5.40;;
39822;SDS011;25499;53.958;10.970;2023-03-31T19:33:14;7.40;;;5.60;;
39822;SDS011;25499;53.958;10.970;2023-03-31T19:35:43;7.75;;;5.30;;
39822;SDS011;25499;53.958;10.970;2023-03-31T19:40:36;7.93;;;5.47;;
39822;SDS011;25499;53.958;10.970;2023-03-31T19:43:02;6.45;;;5.50;;
39822;SDS011;25499;53.958;10.970;2023-03-31T19:45:28;5.75;;;4.55;;
39822;SDS011;25499;53.958;10.970;2023-03-31T19:47:54;7.93;;;5.30;;
39822;SDS011;25499;53.958;10.970;2023-03-31T19:50:19;12.13;;;4.90;;
39822;SDS011;25499;53.958;10.970;2023-03-31T19:52:45;5.03;;;4.55;;
